Terminal Aerodrome Forecast
Issued by NWS

Home | Current Version | Previous Version | Text Only | Print | Product List | Glossary On
Versions: 1 2 3 4 5 6 7 8 9 10 11 12 13 14 15 16 17 18
000
FTUS43 KICT 201141
TAFRSL
TAF
KRSL 201141Z 2012/2112 35017G22KT 3SM -SN OVC013
     FM201300 34017KT P6SM SCT015 OVC040
     FM201700 35017G26KT P6SM SCT035
     FM202000 34017KT P6SM SKC=

USA.gov is the U.S. government's official web portal to all federal, state and local government web resources and services.